Time;durP1;ratioP1;P1;durP2;ratioP2;P2;SDS_P1;SDS_P2;PMS_P1;PMS_P2;Temp;Humidity;BMP_temperature;BMP_pressure;BME280_temperature;BME280_humidity;BME280_pressure;Samples;Min_cycle;Max_cycle;Signal;HPM_P1;HPM_P2
2021/09/24 00:01:13;;;;;;;1.23;1.13;;;8.10;99.90;;;;;;4958553;28;20109;-92
2021/09/24 00:03:39;;;;;;;3.60;1.23;;;8.00;99.90;;;;;;4958291;28;20031;-92
2021/09/24 00:06:05;;;;;;;1.40;1.20;;;8.00;99.90;;;;;;4978137;28;20078;-92
2021/09/24 00:08:32;;;;;;;2.45;1.55;;;8.00;99.90;;;;;;4961542;28;20090;-91
2021/09/24 00:10:58;;;;;;;1.25;0.88;;;7.90;99.90;;;;;;4961563;28;20045;-92
2021/09/24 00:13:24;;;;;;;2.38;2.10;;;7.90;99.90;;;;;;4978794;28;20113;-92
2021/09/24 00:15:52;;;;;;;1.90;1.33;;;7.90;99.90;;;;;;4979072;28;20027;-92
2021/09/24 00:18:18;;;;;;;1.67;1.17;;;7.80;99.90;;;;;;4961623;28;20043;-92
2021/09/24 00:20:45;;;;;;;1.30;1.10;;;7.80;99.90;;;;;;4978700;28;20038;-92
2021/09/24 00:23:10;;;;;;;2.00;1.13;;;7.80;99.90;;;;;;4978550;28;20026;-91
2021/09/24 00:25:37;;;;;;;1.05;0.90;;;7.70;99.90;;;;;;4961380;28;20042;-92
2021/09/24 00:28:05;;;;;;;1.38;1.00;;;7.70;99.90;;;;;;4957958;28;20091;-92
2021/09/24 00:30:32;;;;;;;1.88;1.45;;;7.70;99.90;;;;;;4959634;29;20031;-92
2021/09/24 00:32:57;;;;;;;3.00;1.23;;;7.70;99.90;;;;;;4966936;29;20058;-92
2021/09/24 00:35:23;;;;;;;3.25;1.38;;;7.70;99.90;;;;;;4967620;29;20450;-92
2021/09/24 00:37:49;;;;;;;1.67;1.17;;;7.60;99.90;;;;;;4962791;29;20545;-92
2021/09/24 00:40:14;;;;;;;1.08;1.08;;;7.60;99.90;;;;;;4958591;29;20046;-92
2021/09/24 00:42:40;;;;;;;2.40;1.90;;;7.60;99.90;;;;;;4959493;29;20045;-92
2021/09/24 00:45:07;;;;;;;2.35;1.20;;;7.60;99.90;;;;;;4957910;29;20497;-92
2021/09/24 00:47:33;;;;;;;1.98;1.33;;;7.60;99.90;;;;;;4959198;29;20039;-92
2021/09/24 00:49:59;;;;;;;2.38;1.85;;;7.60;99.90;;;;;;4958542;29;20054;-91
2021/09/24 00:52:26;;;;;;;2.72;1.83;;;7.60;99.90;;;;;;4957751;29;20042;-92
2021/09/24 00:54:52;;;;;;;2.47;1.60;;;7.60;99.90;;;;;;4957878;29;20074;-92
2021/09/24 00:57:19;;;;;;;1.95;1.60;;;7.60;99.90;;;;;;4958965;29;20067;-92
2021/09/24 00:59:48;;;;;;;1.70;1.40;;;7.70;99.90;;;;;;4958042;29;20475;-92
2021/09/24 01:02:14;;;;;;;3.00;1.80;;;7.70;99.90;;;;;;4957520;29;20047;-92
2021/09/24 01:04:40;;;;;;;1.85;1.63;;;7.70;99.90;;;;;;4957905;29;20043;-92
2021/09/24 01:07:06;;;;;;;3.70;1.98;;;7.70;99.90;;;;;;4957377;29;20095;-92
2021/09/24 01:09:33;;;;;;;2.15;1.17;;;7.70;99.90;;;;;;4957774;29;20043;-92
2021/09/24 01:11:59;;;;;;;2.03;1.33;;;7.70;99.90;;;;;;4957619;29;20035;-91
2021/09/24 01:14:29;;;;;;;1.95;1.42;;;7.80;99.90;;;;;;4957602;29;20550;-92
2021/09/24 01:16:56;;;;;;;2.50;1.90;;;7.80;99.90;;;;;;4957920;28;20031;-92
2021/09/24 01:19:23;;;;;;;3.20;2.38;;;7.80;99.90;;;;;;4958932;29;20031;-91
2021/09/24 01:21:49;;;;;;;3.47;2.03;;;7.80;99.90;;;;;;4957764;29;20039;-92
2021/09/24 01:24:15;;;;;;;2.40;1.48;;;7.80;99.90;;;;;;4957470;29;20031;-92
2021/09/24 01:26:49;;;;;;;2.63;1.55;;;7.80;99.90;;;;;;4957488;29;20093;-92
2021/09/24 01:29:15;;;;;;;;;;;7.90;99.90;;;;;;4958747;28;20054;-92
2021/09/24 01:31:41;;;;;;;2.03;1.42;;;7.90;99.90;;;;;;4957176;29;20362;-92
2021/09/24 01:34:07;;;;;;;3.85;1.92;;;7.90;99.90;;;;;;4958310;29;20043;-92
2021/09/24 01:36:33;;;;;;;3.28;2.20;;;7.90;99.90;;;;;;4958383;29;20459;-92
2021/09/24 01:39:07;;;;;;;2.53;1.77;;;7.90;99.90;;;;;;4957167;29;20035;-92
2021/09/24 01:41:37;;;;;;;3.40;2.05;;;7.90;99.90;;;;;;4958367;29;20031;-91
2021/09/24 01:44:03;;;;;;;4.38;2.65;;;7.90;99.90;;;;;;4956836;29;20039;-92
2021/09/24 01:46:29;;;;;;;2.95;1.98;;;7.90;99.90;;;;;;4957182;29;20042;-92
2021/09/24 01:48:55;;;;;;;2.35;1.83;;;7.90;99.90;;;;;;4957866;29;20056;-92
2021/09/24 01:51:20;;;;;;;3.08;2.25;;;7.80;99.90;;;;;;4956914;29;20039;-92
2021/09/24 01:53:47;;;;;;;2.88;2.25;;;7.80;99.90;;;;;;4958088;29;20502;-92
2021/09/24 01:56:13;;;;;;;4.13;3.00;;;7.80;99.90;;;;;;4958114;29;20027;-92
2021/09/24 01:58:39;;;;;;;3.70;2.40;;;7.80;99.90;;;;;;4957804;29;20039;-92
2021/09/24 02:01:04;;;;;;;3.80;2.25;;;7.70;99.90;;;;;;4956675;29;20414;-91
2021/09/24 02:03:30;;;;;;;2.95;2.03;;;7.70;99.90;;;;;;4957868;29;20070;-92
2021/09/24 02:05:56;;;;;;;2.80;2.17;;;7.70;99.90;;;;;;4956904;29;20483;-92
2021/09/24 02:08:21;;;;;;;3.38;2.65;;;7.70;99.90;;;;;;4957754;29;20043;-92
2021/09/24 02:10:47;;;;;;;2.95;2.45;;;7.70;99.90;;;;;;4957768;29;20051;-92
2021/09/24 02:13:13;;;;;;;5.97;3.80;;;7.80;99.90;;;;;;4956511;29;20460;-92
2021/09/24 02:15:39;;;;;;;3.08;1.77;;;7.90;99.90;;;;;;4957276;29;20508;-92
2021/09/24 02:18:04;;;;;;;4.93;2.38;;;7.90;99.90;;;;;;4957831;29;20039;-92
2021/09/24 02:20:30;;;;;;;3.20;2.33;;;7.90;99.90;;;;;;4956399;29;20035;-92
2021/09/24 02:22:56;;;;;;;3.70;2.53;;;8.00;99.90;;;;;;4956371;29;20464;-92
2021/09/24 02:25:22;;;;;;;5.25;3.00;;;8.00;99.90;;;;;;4957286;29;20039;-92
2021/09/24 02:27:47;;;;;;;3.05;1.90;;;8.10;99.90;;;;;;4955825;28;20522;-92
2021/09/24 02:30:13;;;;;;;3.40;2.58;;;8.10;99.90;;;;;;4957111;29;20070;-92
2021/09/24 02:32:39;;;;;;;3.33;2.42;;;8.20;99.90;;;;;;4956362;29;20039;-92
2021/09/24 02:35:06;;;;;;;4.90;2.70;;;8.20;99.90;;;;;;4956459;29;20038;-92
2021/09/24 02:37:32;;;;;;;5.80;3.70;;;8.20;99.90;;;;;;4956120;29;20054;-92
2021/09/24 02:39:57;;;;;;;4.50;2.70;;;8.30;99.90;;;;;;4957139;29;20035;-93
2021/09/24 02:42:23;;;;;;;3.60;2.17;;;8.30;99.90;;;;;;4955994;29;20039;-92
2021/09/24 02:44:49;;;;;;;3.70;2.17;;;8.30;99.90;;;;;;4957205;29;20035;-92
2021/09/24 02:47:15;;;;;;;5.18;3.05;;;8.30;99.90;;;;;;4956114;29;20066;-93
2021/09/24 02:49:42;;;;;;;5.25;2.85;;;8.40;99.90;;;;;;4957450;29;20082;-91
2021/09/24 02:52:08;;;;;;;4.65;3.22;;;8.40;99.90;;;;;;4956079;29;20134;-92
2021/09/24 02:54:34;;;;;;;4.05;2.75;;;8.40;99.90;;;;;;4956958;29;20027;-92
2021/09/24 02:56:59;;;;;;;6.07;3.25;;;8.40;99.90;;;;;;4956982;28;20038;-92
2021/09/24 02:59:25;;;;;;;3.85;2.30;;;8.50;99.90;;;;;;4955699;29;20042;-91
2021/09/24 03:01:54;;;;;;;3.55;2.90;;;8.40;99.90;;;;;;4957160;29;20447;-92
2021/09/24 03:04:20;;;;;;;5.28;3.10;;;8.50;99.90;;;;;;4956996;29;20023;-92
2021/09/24 03:06:45;;;;;;;5.43;3.17;;;8.50;99.90;;;;;;4957126;29;20036;-92
2021/09/24 03:09:11;;;;;;;6.00;3.55;;;8.50;99.90;;;;;;4955737;29;20042;-93
2021/09/24 03:11:37;;;;;;;5.35;2.83;;;8.50;99.90;;;;;;4956838;29;20031;-92
2021/09/24 03:14:03;;;;;;;4.18;2.75;;;8.50;99.90;;;;;;4956799;29;20046;-92
2021/09/24 03:16:28;;;;;;;5.18;3.38;;;8.60;99.90;;;;;;4955837;29;20055;-92
2021/09/24 03:18:54;;;;;;;2.83;2.28;;;8.60;99.90;;;;;;4955832;29;20452;-92
2021/09/24 03:21:20;;;;;;;8.25;3.47;;;8.60;99.90;;;;;;4955613;29;20042;-92
2021/09/24 03:23:45;;;;;;;5.85;3.38;;;8.60;99.90;;;;;;4956042;29;20041;-92
2021/09/24 03:26:12;;;;;;;4.05;2.90;;;8.70;99.90;;;;;;4957012;29;20526;-92
2021/09/24 03:28:38;;;;;;;6.18;3.58;;;8.60;99.90;;;;;;4956450;28;20386;-92
2021/09/24 03:31:04;;;;;;;5.47;3.42;;;8.60;99.90;;;;;;4939992;29;20035;-92
2021/09/24 03:33:29;;;;;;;5.20;3.30;;;8.70;99.90;;;;;;4957647;29;20039;-92
2021/09/24 03:35:56;;;;;;;5.22;3.08;;;8.70;99.90;;;;;;4940510;29;20063;-92
2021/09/24 03:38:22;;;;;;;3.92;2.97;;;8.70;99.90;;;;;;4960456;29;20041;-92
2021/09/24 03:40:48;;;;;;;3.97;2.47;;;8.70;99.90;;;;;;4949220;29;20065;-93
2021/09/24 03:43:14;;;;;;;5.72;3.08;;;8.70;99.90;;;;;;4950144;29;20542;-93
2021/09/24 03:45:40;;;;;;;7.95;2.92;;;8.70;99.90;;;;;;4949075;29;20055;-93
2021/09/24 03:48:05;;;;;;;7.07;3.38;;;8.80;99.90;;;;;;4960872;29;20031;-92
2021/09/24 03:50:31;;;;;;;4.40;2.75;;;8.80;99.90;;;;;;4962018;29;20039;-93
2021/09/24 03:52:57;;;;;;;5.22;3.60;;;8.80;99.90;;;;;;4960199;29;20517;-92
2021/09/24 03:55:23;;;;;;;4.22;2.65;;;8.90;99.90;;;;;;4942972;29;20186;-92
2021/09/24 03:57:48;;;;;;;4.00;3.03;;;8.90;99.90;;;;;;4960646;29;20046;-93
2021/09/24 04:00:15;;;;;;;4.88;3.08;;;8.90;99.90;;;;;;4960221;29;20032;-93
2021/09/24 04:02:41;;;;;;;3.25;2.42;;;8.90;99.90;;;;;;4960256;29;20036;-93
2021/09/24 04:05:08;;;;;;;5.03;2.65;;;8.90;99.90;;;;;;4943918;29;20059;-91
2021/09/24 04:07:33;;;;;;;6.32;3.95;;;9.00;99.90;;;;;;4943440;29;20042;-91
2021/09/24 04:09:59;;;;;;;5.75;2.40;;;9.00;99.90;;;;;;4943133;29;20039;-92
2021/09/24 04:12:25;;;;;;;5.90;3.13;;;9.00;99.90;;;;;;4943089;29;20039;-92
2021/09/24 04:14:51;;;;;;;4.35;3.13;;;9.00;99.90;;;;;;4943929;29;20038;-92
2021/09/24 04:17:16;;;;;;;4.32;3.20;;;9.10;99.90;;;;;;4943835;29;20509;-92
2021/09/24 04:19:42;;;;;;;8.05;3.75;;;9.10;99.90;;;;;;4960127;29;20028;-91
2021/09/24 04:22:08;;;;;;;5.95;3.83;;;9.10;99.90;;;;;;4944392;29;20035;-91
2021/09/24 04:24:34;;;;;;;6.07;3.03;;;9.10;99.90;;;;;;4944197;29;20485;-92
2021/09/24 04:26:59;;;;;;;4.57;3.38;;;9.10;99.90;;;;;;4945349;28;20035;-92
2021/09/24 04:29:25;;;;;;;4.20;3.65;;;9.20;99.90;;;;;;4963212;28;20430;-92
2021/09/24 04:31:51;;;;;;;4.43;3.47;;;9.10;99.90;;;;;;4982280;28;20043;-91
2021/09/24 04:34:17;;;;;;;4.55;3.10;;;9.20;99.90;;;;;;4991842;28;20034;-92
2021/09/24 04:36:43;;;;;;;11.85;2.95;;;9.20;99.90;;;;;;4993400;28;20046;-92
2021/09/24 04:39:08;;;;;;;10.27;3.38;;;9.30;99.90;;;;;;4973145;28;20049;-92
2021/09/24 04:41:34;;;;;;;6.45;3.92;;;9.30;99.90;;;;;;4966747;28;20035;-92
2021/09/24 04:44:00;;;;;;;6.47;4.10;;;9.30;99.90;;;;;;4963558;28;20474;-93
2021/09/24 04:46:26;;;;;;;6.30;3.85;;;9.30;99.90;;;;;;4962799;28;20400;-92
2021/09/24 04:48:52;;;;;;;6.05;4.03;;;9.40;99.90;;;;;;4962147;28;20054;-91
2021/09/24 04:51:18;;;;;;;5.25;4.20;;;9.40;99.90;;;;;;4979744;28;20074;-92
2021/09/24 04:53:43;;;;;;;9.10;4.82;;;9.40;99.90;;;;;;4979483;28;20066;-92
2021/09/24 04:56:09;;;;;;;7.57;4.32;;;9.40;99.90;;;;;;4964895;28;20070;-92
2021/09/24 04:58:34;;;;;;;9.18;4.70;;;9.40;99.90;;;;;;4965592;28;20070;-92
2021/09/24 05:01:00;;;;;;;5.97;4.30;;;9.40;99.90;;;;;;4980831;28;20034;-91
2021/09/24 05:03:26;;;;;;;8.05;4.05;;;9.50;99.90;;;;;;4979704;28;20070;-92
2021/09/24 05:05:52;;;;;;;6.55;4.22;;;9.50;99.90;;;;;;4979279;28;20054;-92
2021/09/24 05:08:17;;;;;;;6.93;4.72;;;9.50;99.90;;;;;;4962660;28;20047;-91
2021/09/24 05:10:43;;;;;;;7.22;4.68;;;9.50;99.90;;;;;;4964613;28;20035;-92
2021/09/24 05:13:09;;;;;;;5.00;4.07;;;9.50;99.90;;;;;;4964059;28;20043;-92
2021/09/24 05:15:34;;;;;;;7.85;4.03;;;9.50;99.90;;;;;;4981742;28;20035;-92
2021/09/24 05:18:00;;;;;;;6.10;4.00;;;9.60;99.90;;;;;;4972991;28;20034;-92
2021/09/24 05:20:27;;;;;;;7.13;4.30;;;9.50;99.90;;;;;;4973135;28;20035;-92
2021/09/24 05:22:57;;;;;;;5.85;4.05;;;9.60;99.90;;;;;;4968006;28;20085;-92
2021/09/24 05:25:23;;;;;;;4.43;3.65;;;9.60;99.90;;;;;;4982241;28;20031;-92
2021/09/24 05:27:49;;;;;;;6.05;3.42;;;9.60;99.90;;;;;;4971108;28;20109;-92
2021/09/24 05:30:16;;;;;;;5.85;4.03;;;9.60;99.90;;;;;;4960658;29;20038;-90
2021/09/24 05:32:42;;;;;;;9.05;4.70;;;9.70;99.90;;;;;;4943231;29;20031;-91
2021/09/24 05:35:08;;;;;;;6.25;4.13;;;9.70;99.90;;;;;;4961421;29;20046;-92
2021/09/24 05:37:34;;;;;;;5.53;3.92;;;9.70;99.90;;;;;;4959756;29;20062;-93
2021/09/24 05:40:00;;;;;;;5.20;3.85;;;9.70;99.90;;;;;;4942361;29;20501;-91
2021/09/24 05:42:25;;;;;;;7.32;5.18;;;9.70;99.90;;;;;;4960735;29;20039;-90
2021/09/24 05:44:51;;;;;;;8.15;4.88;;;9.80;99.90;;;;;;4958287;29;20035;-92
2021/09/24 05:47:17;;;;;;;9.27;5.93;;;9.80;99.90;;;;;;4958727;29;20039;-93
2021/09/24 05:49:42;;;;;;;5.97;4.65;;;9.70;99.90;;;;;;4958746;29;20072;-92
2021/09/24 05:52:08;;;;;;;6.22;3.53;;;9.80;99.90;;;;;;4958616;28;20475;-92
2021/09/24 05:54:34;;;;;;;6.88;4.28;;;9.80;99.90;;;;;;4959250;29;20039;-92
2021/09/24 05:57:00;;;;;;;7.13;4.55;;;9.80;99.90;;;;;;4959266;29;20028;-93
2021/09/24 05:59:26;;;;;;;8.90;5.22;;;9.80;99.90;;;;;;4940808;29;20037;-93
2021/09/24 06:01:52;;;;;;;7.50;5.10;;;9.90;99.90;;;;;;4958498;28;20086;-93
2021/09/24 06:04:19;;;;;;;8.10;4.50;;;9.90;99.90;;;;;;4956354;28;20085;-93
2021/09/24 06:06:45;;;;;;;7.28;4.35;;;9.90;99.90;;;;;;4958460;29;20036;-93
2021/09/24 06:09:11;;;;;;;7.72;4.57;;;9.90;99.90;;;;;;4940507;29;20095;-93
2021/09/24 06:11:37;;;;;;;8.20;4.93;;;10.00;99.90;;;;;;4940965;29;20063;-94
2021/09/24 06:14:04;;;;;;;9.98;5.53;;;10.00;99.90;;;;;;4956868;28;20040;-93
2021/09/24 06:16:30;;;;;;;6.55;4.90;;;10.00;99.90;;;;;;4959634;29;20072;-92
2021/09/24 06:18:58;;;;;;;8.77;4.80;;;10.10;99.90;;;;;;4941928;29;20043;-92
2021/09/24 06:21:24;;;;;;;8.43;4.65;;;10.10;99.90;;;;;;4940188;29;20078;-92
2021/09/24 06:23:50;;;;;;;6.43;4.43;;;10.10;99.90;;;;;;4955209;29;20032;-92
2021/09/24 06:26:16;;;;;;;9.38;3.95;;;10.10;99.90;;;;;;4957397;29;20174;-92
2021/09/24 06:28:42;;;;;;;8.30;4.60;;;10.10;99.90;;;;;;4972748;28;20515;-93
2021/09/24 06:31:08;;;;;;;8.75;4.28;;;10.20;99.90;;;;;;4977252;28;20058;-91
2021/09/24 06:33:34;;;;;;;5.22;3.83;;;10.20;99.90;;;;;;4961146;28;20126;-91
2021/09/24 06:35:59;;;;;;;8.15;5.00;;;10.20;99.90;;;;;;4974118;28;20031;-91
2021/09/24 06:38:25;;;;;;;6.10;4.45;;;10.20;99.90;;;;;;4974234;28;20100;-92
2021/09/24 06:40:51;;;;;;;7.00;4.82;;;10.20;99.90;;;;;;4974536;28;20109;-94
2021/09/24 06:43:23;;;;;;;8.93;4.00;;;10.30;99.90;;;;;;4962081;28;20077;-92
2021/09/24 06:45:48;;;;;;;8.57;4.90;;;10.30;99.90;;;;;;4977965;28;20039;-91
2021/09/24 06:48:14;;;;;;;8.55;5.10;;;10.40;99.90;;;;;;4974282;28;20106;-92
2021/09/24 06:50:40;;;;;;;8.45;5.68;;;10.40;99.90;;;;;;4975625;28;20109;-92
2021/09/24 06:53:06;;;;;;;7.50;4.93;;;10.40;99.90;;;;;;4976951;28;20035;-92
2021/09/24 06:55:32;;;;;;;8.32;5.78;;;10.40;99.90;;;;;;4959763;28;20035;-91
2021/09/24 06:57:58;;;;;;;8.95;5.55;;;10.50;99.90;;;;;;4976139;28;20110;-92
2021/09/24 07:00:25;;;;;;;8.43;5.88;;;10.50;99.90;;;;;;4958858;28;20038;-91
2021/09/24 07:02:57;;;;;;;9.65;5.65;;;10.50;99.90;;;;;;4982779;28;20058;-92
2021/09/24 07:05:22;;;;;;;7.20;5.00;;;10.50;99.90;;;;;;4966684;28;20031;-93
2021/09/24 07:07:49;;;;;;;8.65;5.25;;;10.60;99.90;;;;;;4976495;28;20117;-94
2021/09/24 07:10:15;;;;;;;8.07;4.93;;;10.50;99.90;;;;;;4964517;28;20049;-95
2021/09/24 07:12:42;;;;;;;8.63;5.03;;;10.50;99.90;;;;;;4966706;28;20038;-95
2021/09/24 07:15:08;;;;;;;6.90;5.50;;;10.50;99.90;;;;;;4961918;28;20050;-94
2021/09/24 07:17:34;;;;;;;8.30;5.10;;;10.60;99.90;;;;;;4972621;28;20027;-94
2021/09/24 07:20:08;;;;;;;6.55;4.68;;;10.60;99.90;;;;;;4964031;28;20074;-95
2021/09/24 07:22:34;;;;;;;;;;;10.60;99.90;;;;;;4971212;28;20042;-92
2021/09/24 07:25:06;;;;;;;7.90;4.22;;;10.60;99.90;;;;;;4970033;28;19941;-94
2021/09/24 07:27:32;;;;;;;6.80;4.55;;;10.70;99.90;;;;;;4983380;28;20070;-92
2021/09/24 07:30:00;;;;;;;6.03;4.03;;;10.70;99.90;;;;;;4975696;28;20049;-95
2021/09/24 07:32:26;;;;;;;7.22;4.75;;;10.70;99.90;;;;;;4978482;28;20049;-94
2021/09/24 07:34:52;;;;;;;8.85;5.03;;;10.80;99.90;;;;;;4960713;28;20037;-94
2021/09/24 07:37:17;;;;;;;7.88;5.00;;;10.70;99.90;;;;;;4957962;28;20039;-94
2021/09/24 07:39:43;;;;;;;6.05;4.55;;;10.80;99.90;;;;;;4974053;28;20043;-92
2021/09/24 07:42:09;;;;;;;9.38;5.07;;;10.70;99.90;;;;;;4954314;28;20034;-92
2021/09/24 07:44:36;;;;;;;6.63;4.20;;;10.70;99.90;;;;;;4977277;28;20027;-92
2021/09/24 07:47:02;;;;;;;7.70;4.55;;;10.70;99.90;;;;;;4957740;28;20031;-94
2021/09/24 07:49:28;;;;;;;7.47;4.70;;;10.80;99.90;;;;;;4978591;28;20054;-94
2021/09/24 07:51:53;;;;;;;6.40;4.88;;;10.70;99.90;;;;;;4959102;28;20039;-95
2021/09/24 07:54:24;;;;;;;7.40;4.93;;;10.70;99.90;;;;;;4956071;28;20057;-94
2021/09/24 07:56:51;;;;;;;6.35;4.57;;;10.70;99.90;;;;;;4955349;28;20042;-94
2021/09/24 07:59:17;;;;;;;8.27;5.25;;;10.70;99.90;;;;;;4955540;28;20046;-96
2021/09/24 08:01:43;;;;;;;5.85;4.18;;;10.70;99.90;;;;;;4974947;28;20038;-95
2021/09/24 08:04:09;;;;;;;6.53;4.95;;;10.60;99.90;;;;;;4958489;28;20039;-91
2021/09/24 08:06:35;;;;;;;6.93;5.03;;;10.60;99.90;;;;;;4953218;28;20117;-91
2021/09/24 08:09:01;;;;;;;6.93;4.85;;;10.60;99.90;;;;;;4958241;28;20061;-94
2021/09/24 08:11:27;;;;;;;10.48;5.50;;;10.60;99.90;;;;;;4957531;28;20247;-93
2021/09/24 08:13:52;;;;;;;7.28;5.20;;;10.60;99.90;;;;;;4955236;28;20463;-94
2021/09/24 08:16:18;;;;;;;8.13;4.88;;;10.60;99.90;;;;;;4974478;28;20122;-93
2021/09/24 08:18:45;;;;;;;7.03;4.82;;;10.60;99.90;;;;;;4974547;28;20118;-93
2021/09/24 08:21:10;;;;;;;9.35;5.65;;;10.60;99.90;;;;;;4959961;28;20109;-94
2021/09/24 08:23:37;;;;;;;8.45;5.00;;;10.60;99.90;;;;;;4974915;28;20046;-92
2021/09/24 08:26:05;;;;;;;10.27;5.55;;;10.60;99.90;;;;;;4958971;28;20035;-93
2021/09/24 08:28:31;;;;;;;8.63;5.60;;;10.60;99.90;;;;;;4961446;28;20047;-93
2021/09/24 08:30:56;;;;;;;8.27;6.10;;;10.60;99.90;;;;;;4961307;28;20053;-93
2021/09/24 08:33:22;;;;;;;6.38;4.82;;;10.60;99.90;;;;;;4978688;28;20030;-93
2021/09/24 08:35:48;;;;;;;7.10;4.60;;;10.60;99.90;;;;;;4977363;28;20086;-91
2021/09/24 08:38:14;;;;;;;7.55;5.22;;;10.60;99.90;;;;;;4979433;28;20031;-93
2021/09/24 08:40:40;;;;;;;10.60;5.53;;;10.60;99.90;;;;;;4978937;28;20035;-94
2021/09/24 08:43:07;;;;;;;7.07;5.95;;;10.60;99.90;;;;;;4979397;28;20085;-94
2021/09/24 08:45:33;;;;;;;7.82;5.97;;;10.60;99.90;;;;;;4978593;28;20035;-93
2021/09/24 08:48:03;;;;;;;9.10;5.35;;;10.70;99.90;;;;;;4962128;28;20100;-94
2021/09/24 08:50:30;;;;;;;8.73;5.03;;;10.70;99.90;;;;;;4980149;28;20095;-94
2021/09/24 08:52:57;;;;;;;9.38;5.57;;;10.60;99.90;;;;;;4978995;28;20083;-92
2021/09/24 08:55:23;;;;;;;7.18;5.28;;;10.60;99.90;;;;;;4961159;28;20034;-92
2021/09/24 08:57:49;;;;;;;8.73;5.60;;;10.60;99.90;;;;;;4961035;28;20046;-92
2021/09/24 09:00:16;;;;;;;8.98;5.20;;;10.70;99.90;;;;;;4978601;28;20042;-94
2021/09/24 09:03:11;;;;;;;8.25;4.97;;;10.60;99.90;;;;;;4961734;28;20089;-93
2021/09/24 09:05:38;;;;;;;;;;;10.60;99.90;;;;;;4960953;28;20046;-93
2021/09/24 09:08:16;;;;;;;6.65;4.05;;;10.60;99.90;;;;;;4979222;28;20041;-92
2021/09/24 09:11:00;;;;;;;6.75;3.97;;;10.60;99.90;;;;;;4981328;28;20038;-94
2021/09/24 09:13:31;;;;;;;11.45;4.60;;;10.60;99.90;;;;;;4962613;28;20082;-92
2021/09/24 09:16:05;;;;;;;6.15;4.53;;;10.60;99.90;;;;;;4977586;28;20410;-92
2021/09/24 09:18:33;;;;;;;7.82;4.45;;;10.60;99.90;;;;;;4959728;28;20125;-92
2021/09/24 09:21:01;;;;;;;6.88;4.47;;;10.60;99.90;;;;;;4960703;28;20034;-93
2021/09/24 09:23:28;;;;;;;8.48;5.30;;;10.60;99.90;;;;;;4960953;28;20062;-93
2021/09/24 09:26:00;;;;;;;5.72;4.85;;;10.50;99.90;;;;;;4960594;28;20031;-93
2021/09/24 09:28:41;;;;;;;7.78;5.07;;;10.50;99.90;;;;;;4959937;28;20053;-92
2021/09/24 09:31:29;;;;;;;8.18;5.22;;;10.50;99.90;;;;;;4961580;28;20054;-92
2021/09/24 09:34:00;;;;;;;6.35;4.30;;;10.40;99.90;;;;;;4960625;28;20035;-91
2021/09/24 09:36:35;;;;;;;8.75;4.93;;;10.40;99.90;;;;;;4954543;28;20134;-90
2021/09/24 09:39:09;;;;;;;6.68;4.22;;;10.40;99.90;;;;;;4973806;28;20041;-90
2021/09/24 09:41:35;;;;;;;8.70;4.95;;;10.40;99.90;;;;;;4958546;28;20046;-89
2021/09/24 09:44:01;;;;;;;8.60;5.43;;;10.40;99.90;;;;;;4975780;28;20105;-91
2021/09/24 09:46:34;;;;;;;8.65;6.43;;;10.40;99.90;;;;;;4958325;28;20117;-90
2021/09/24 09:49:04;;;;;;;9.63;5.20;;;10.40;99.90;;;;;;4980331;28;20129;-92
2021/09/24 09:51:31;;;;;;;8.75;5.40;;;10.40;99.90;;;;;;4965809;28;20035;-91
2021/09/24 09:53:57;;;;;;;7.38;4.82;;;10.40;99.90;;;;;;4963583;28;20038;-91
2021/09/24 09:56:49;;;;;;;10.48;5.38;;;10.40;99.90;;;;;;4961575;28;20493;-91
2021/09/24 09:59:29;;;;;;;7.85;5.25;;;10.40;99.90;;;;;;4972422;28;20489;-92
2021/09/24 10:02:10;;;;;;;8.15;5.07;;;10.40;99.90;;;;;;4956195;28;20502;-93
2021/09/24 10:04:38;;;;;;;6.90;4.45;;;10.40;99.90;;;;;;4955499;28;20047;-91
2021/09/24 10:07:18;;;;;;;6.57;5.00;;;10.40;99.90;;;;;;4981480;28;20094;-95
2021/09/24 10:09:46;;;;;;;7.22;4.97;;;10.40;99.90;;;;;;4963220;28;20399;-94
2021/09/24 10:12:19;;;;;;;8.50;4.38;;;10.40;99.90;;;;;;4963347;28;20046;-94
2021/09/24 10:14:51;;;;;;;6.97;4.57;;;10.40;99.90;;;;;;4984039;28;20434;-93
2021/09/24 10:17:20;;;;;;;9.85;5.43;;;10.40;99.90;;;;;;4964854;28;20035;-92
2021/09/24 10:19:47;;;;;;;10.23;5.15;;;10.50;99.90;;;;;;4966320;28;20107;-94
2021/09/24 10:22:13;;;;;;;11.52;6.00;;;10.50;99.90;;;;;;4958653;28;20042;-94
2021/09/24 10:24:40;;;;;;;6.75;5.20;;;10.50;99.90;;;;;;4960898;28;20031;-91
2021/09/24 10:27:10;;;;;;;6.63;4.63;;;10.40;99.90;;;;;;4961046;28;20085;-90
2021/09/24 10:29:41;;;;;;;9.27;5.00;;;10.40;99.90;;;;;;4960001;28;20042;-93
2021/09/24 10:32:25;;;;;;;6.70;4.18;;;10.40;99.90;;;;;;4961625;28;20035;-93
2021/09/24 10:34:52;;;;;;;;;;;10.40;99.90;;;;;;4978827;28;20043;-92
2021/09/24 10:37:19;;;;;;;6.35;4.22;;;10.40;99.90;;;;;;4960803;28;20047;-93
2021/09/24 10:39:47;;;;;;;8.32;5.05;;;10.40;99.90;;;;;;4979685;28;20042;-94
2021/09/24 10:42:22;;;;;;;5.25;3.70;;;10.40;99.90;;;;;;4958613;28;20066;-92
2021/09/24 10:45:03;;;;;;;7.55;4.97;;;10.50;99.90;;;;;;4977969;28;20070;-91
2021/09/24 10:47:49;;;;;;;7.72;3.88;;;10.50;99.90;;;;;;4959782;28;20455;-93
2021/09/24 10:53:24;;;;;;;5.88;3.67;;;10.50;99.90;;;;;;4973881;28;20054;-93
2021/09/24 10:55:53;;;;;;;5.28;3.53;;;10.50;99.90;;;;;;4963149;28;20039;-93
2021/09/24 10:58:36;;;;;;;6.05;3.97;;;10.60;99.90;;;;;;4978256;28;20046;-92
2021/09/24 11:01:05;;;;;;;5.47;4.20;;;10.60;99.90;;;;;;4957902;28;20401;-91
2021/09/24 11:03:33;;;;;;;4.53;3.72;;;10.60;99.90;;;;;;4963483;28;20041;-92
2021/09/24 11:06:11;;;;;;;6.38;3.72;;;10.60;99.90;;;;;;4980162;28;20466;-90
2021/09/24 11:08:45;;;;;;;6.10;3.83;;;10.60;99.90;;;;;;4979031;28;20077;-90
2021/09/24 11:11:21;;;;;;;5.00;3.42;;;10.70;99.90;;;;;;4954776;28;20035;-91
2021/09/24 11:13:48;;;;;;;6.07;3.65;;;10.70;99.90;;;;;;4980581;28;20133;-89
2021/09/24 11:16:17;;;;;;;6.78;4.78;;;10.80;99.90;;;;;;4963207;28;20054;-91
2021/09/24 11:18:53;;;;;;;4.72;3.63;;;10.90;99.90;;;;;;4980845;28;20035;-94
2021/09/24 11:21:35;;;;;;;;;;;;;;;;;;;;;
2021/09/24 11:30:01;;;;;;;;;;;;;;;;;;;;;
2021/09/24 11:40:24;;;;;;;;;;;;;;;;;;;;;
2021/09/24 11:43:09;;;;;;;;;;;;;;;;;;;;;
2021/09/24 15:32:40;;;;;;;;;;;;;;;;;;;;;
2021/09/24 15:35:36;;;;;;;7.00;5.57;;;13.50;98.10;;;;;;4983167;28;20458;-95
2021/09/24 15:39:09;;;;;;;;;;;;;;;;;;;;;
2021/09/24 15:42:00;;;;;;;6.88;4.75;;;13.20;99.00;;;;;;4956264;28;20103;-96
2021/09/24 15:44:35;;;;;;;5.53;4.57;;;13.00;99.80;;;;;;4904525;29;20025;-94
2021/09/24 15:47:27;;;;;;;7.75;4.20;;;12.90;99.70;;;;;;4838810;29;20053;-95
2021/09/24 15:50:05;;;;;;;5.65;3.90;;;12.90;99.80;;;;;;4904677;29;20062;-92
2021/09/24 15:55:15;;;;;;;3.92;2.63;;;12.90;98.90;;;;;;5684726;23;20240;-95
2021/09/24 16:06:32;;;;;;;3.65;2.20;;;12.90;97.40;;;;;;4967372;29;20047;-95
2021/09/24 16:08:58;;;;;;;2.88;1.98;;;12.90;97.10;;;;;;4991883;23;20062;-95
2021/09/24 16:11:26;;;;;;;2.40;1.52;;;12.80;96.70;;;;;;4959666;28;20046;-93
2021/09/24 16:13:53;;;;;;;2.13;1.60;;;12.80;96.50;;;;;;4964879;28;20107;-93
2021/09/24 16:16:21;;;;;;;4.05;2.10;;;12.80;96.40;;;;;;4998312;28;20481;-94
2021/09/24 16:18:46;;;;;;;2.38;1.55;;;12.80;96.30;;;;;;4980160;28;20038;-92
2021/09/24 16:21:13;;;;;;;3.03;1.58;;;12.80;96.30;;;;;;4979174;28;20050;-93
2021/09/24 16:23:39;;;;;;;2.95;2.00;;;12.80;96.40;;;;;;4961393;28;20102;-94
2021/09/24 16:26:05;;;;;;;3.28;1.50;;;12.80;96.40;;;;;;4955936;28;20038;-94
2021/09/24 16:28:34;;;;;;;4.38;1.90;;;12.80;96.10;;;;;;4957016;28;20043;-94
2021/09/24 16:31:00;;;;;;;1.65;1.55;;;12.70;96.10;;;;;;4958826;28;20169;-93
2021/09/24 16:33:27;;;;;;;3.55;2.08;;;12.70;96.00;;;;;;4975682;28;20041;-92
2021/09/24 16:35:57;;;;;;;2.20;1.67;;;12.70;96.00;;;;;;4957116;28;20118;-91
2021/09/24 16:38:24;;;;;;;4.70;1.60;;;12.70;96.00;;;;;;4956506;28;20061;-92
2021/09/24 16:40:53;;;;;;;4.32;1.90;;;12.70;96.10;;;;;;4972091;28;20093;-90
2021/09/24 16:43:20;;;;;;;5.25;1.80;;;12.70;96.20;;;;;;4943000;28;20054;-91
2021/09/24 16:45:51;;;;;;;3.20;1.80;;;12.60;96.30;;;;;;4973233;28;20089;-93
2021/09/24 16:49:21;;;;;;;;;;;;;;;;;;;;;
2021/09/24 16:52:59;;;;;;;;;;;;;;;;;;;;;
2021/09/24 16:55:20;;;;;;;2.58;2.08;;;12.60;96.50;;;;;;4961508;28;20393;-91
2021/09/24 16:57:50;;;;;;;5.88;2.50;;;12.60;96.70;;;;;;4945553;28;20102;-92
2021/09/24 17:00:18;;;;;;;6.72;2.92;;;12.60;96.70;;;;;;4984037;28;20145;-90
2021/09/24 17:02:52;;;;;;;2.97;2.47;;;12.60;96.80;;;;;;4957630;28;20102;-91
2021/09/24 17:05:29;;;;;;;4.78;2.55;;;12.50;96.90;;;;;;4943734;28;20051;-91
2021/09/24 17:07:56;;;;;;;4.85;2.40;;;12.60;96.90;;;;;;4960475;28;20062;-91
2021/09/24 17:10:23;;;;;;;1.77;1.67;;;12.50;96.80;;;;;;4924314;29;20091;-91
2021/09/24 17:12:59;;;;;;;2.88;1.92;;;12.50;96.90;;;;;;4932952;29;20061;-91
2021/09/24 17:15:28;;;;;;;3.20;2.33;;;12.50;97.00;;;;;;4962779;28;20047;-92
2021/09/24 17:17:54;;;;;;;6.03;2.30;;;12.50;97.00;;;;;;4936737;29;20067;-90
2021/09/24 17:20:24;;;;;;;2.15;1.73;;;12.40;97.00;;;;;;4925359;29;20134;-91
2021/09/24 17:22:51;;;;;;;2.03;1.63;;;12.40;97.10;;;;;;4939795;29;20117;-92
2021/09/24 17:25:24;;;;;;;9.13;2.67;;;12.40;97.10;;;;;;4956487;29;20497;-92